sensor_id;sensor_type;location;lat;lon;timestamp;pressure;altitude;pressure_sealevel;temperature;humidity
8697;BME280;4385;48.848;8.924;2023-04-03T00:00:09;98110.03;;;17.57;100.00
8697;BME280;4385;48.848;8.924;2023-04-03T00:02:35;98111.75;;;17.55;100.00
8697;BME280;4385;48.848;8.924;2023-04-03T00:05:00;98114.31;;;17.53;100.00
8697;BME280;4385;48.848;8.924;2023-04-03T00:07:25;98113.47;;;17.51;100.00
8697;BME280;4385;48.848;8.924;2023-04-03T00:09:51;98104.16;;;17.50;100.00
8697;BME280;4385;48.848;8.924;2023-04-03T00:12:16;98112.63;;;17.51;100.00
8697;BME280;4385;48.848;8.924;2023-04-03T00:14:41;98110.94;;;17.50;100.00
8697;BME280;4385;48.848;8.924;2023-04-03T00:17:07;98107.53;;;17.49;100.00
8697;BME280;4385;48.848;8.924;2023-04-03T00:19:32;98115.19;;;17.49;100.00
8697;BME280;4385;48.848;8.924;2023-04-03T00:21:57;98114.38;;;17.47;100.00
8697;BME280;4385;48.848;8.924;2023-04-03T00:24:22;98114.38;;;17.47;100.00
8697;BME280;4385;48.848;8.924;2023-04-03T00:26:48;98111.84;;;17.47;100.00
8697;BME280;4385;48.848;8.924;2023-04-03T00:29:13;98116.06;;;17.45;100.00
8697;BME280;4385;48.848;8.924;2023-04-03T00:31:39;98108.44;;;17.43;100.00
8697;BME280;4385;48.848;8.924;2023-04-03T00:34:05;98109.31;;;17.42;100.00
8697;BME280;4385;48.848;8.924;2023-04-03T00:36:30;98110.16;;;17.41;100.00
8697;BME280;4385;48.848;8.924;2023-04-03T00:38:55;98108.47;;;17.40;100.00
8697;BME280;4385;48.848;8.924;2023-04-03T00:41:21;98109.34;;;17.41;100.00
8697;BME280;4385;48.848;8.924;2023-04-03T00:43:46;98105.09;;;17.38;100.00
8697;BME280;4385;48.848;8.924;2023-04-03T00:46:11;98105.94;;;17.39;100.00
8697;BME280;4385;48.848;8.924;2023-04-03T00:48:49;98103.41;;;17.37;100.00
8697;BME280;4385;48.848;8.924;2023-04-03T00:51:25;98111.06;;;17.36;100.00
8697;BME280;4385;48.848;8.924;2023-04-03T00:53:58;98113.63;;;17.34;100.00
8697;BME280;4385;48.848;8.924;2023-04-03T00:56:26;98113.63;;;17.32;100.00
8697;BME280;4385;48.848;8.924;2023-04-03T00:58:59;98100.91;;;17.32;100.00
8697;BME280;4385;48.848;8.924;2023-04-03T01:01:27;98105.13;;;17.30;100.00
8697;BME280;4385;48.848;8.924;2023-04-03T01:03:53;98104.31;;;17.30;100.00
8697;BME280;4385;48.848;8.924;2023-04-03T01:06:23;98103.47;;;17.29;100.00
8697;BME280;4385;48.848;8.924;2023-04-03T01:08:51;98100.06;;;17.27;100.00
8697;BME280;4385;48.848;8.924;2023-04-03T01:11:17;98101.78;;;17.27;100.00
8697;BME280;4385;48.848;8.924;2023-04-03T01:13:43;98100.09;;;17.26;100.00
8697;BME280;4385;48.848;8.924;2023-04-03T01:16:08;98100.09;;;17.26;100.00
8697;BME280;4385;48.848;8.924;2023-04-03T01:18:36;98106.91;;;17.24;100.00
8697;BME280;4385;48.848;8.924;2023-04-03T01:24:00;98104.38;;;17.22;100.00
8697;BME280;4385;48.848;8.924;2023-04-03T01:26:30;98100.97;;;17.20;100.00
8697;BME280;4385;48.848;8.924;2023-04-03T01:28:58;98103.53;;;17.18;100.00
8697;BME280;4385;48.848;8.924;2023-04-03T01:31:27;98106.09;;;17.17;100.00
8697;BME280;4385;48.848;8.924;2023-04-03T01:33:54;98112.06;;;17.16;100.00
8697;BME280;4385;48.848;8.924;2023-04-03T01:36:28;98109.50;;;17.16;100.00
8697;BME280;4385;48.848;8.924;2023-04-03T01:38:55;98112.91;;;17.15;100.00
8697;BME280;4385;48.848;8.924;2023-04-03T01:41:21;98112.91;;;17.15;100.00
8697;BME280;4385;48.848;8.924;2023-04-03T01:43:47;98117.16;;;17.14;100.00
8697;BME280;4385;48.848;8.924;2023-04-03T01:46:14;98118.00;;;17.15;100.00
8697;BME280;4385;48.848;8.924;2023-04-03T01:48:39;98118.00;;;17.15;100.00
8697;BME280;4385;48.848;8.924;2023-04-03T01:51:05;98105.25;;;17.15;100.00
8697;BME280;4385;48.848;8.924;2023-04-03T01:53:30;98117.16;;;17.14;100.00
8697;BME280;4385;48.848;8.924;2023-04-03T01:55:56;98118.00;;;17.15;100.00
8697;BME280;4385;48.848;8.924;2023-04-03T01:58:22;98123.09;;;17.13;100.00
8697;BME280;4385;48.848;8.924;2023-04-03T02:00:47;98116.31;;;17.12;100.00
8697;BME280;4385;48.848;8.924;2023-04-03T02:03:13;98120.56;;;17.12;100.00
8697;BME280;4385;48.848;8.924;2023-04-03T02:05:38;98117.19;;;17.10;100.00
8697;BME280;4385;48.848;8.924;2023-04-03T02:08:04;98116.34;;;17.07;100.00
8697;BME280;4385;48.848;8.924;2023-04-03T02:10:29;98116.34;;;17.07;100.00
8697;BME280;4385;48.848;8.924;2023-04-03T02:12:55;98118.91;;;17.07;100.00
8697;BME280;4385;48.848;8.924;2023-04-03T02:15:20;98123.09;;;17.05;100.00
8697;BME280;4385;48.848;8.924;2023-04-03T02:17:45;98121.44;;;17.04;100.00
8697;BME280;4385;48.848;8.924;2023-04-03T02:20:11;98123.13;;;17.02;100.00
8697;BME280;4385;48.848;8.924;2023-04-03T02:22:36;98117.22;;;17.02;100.00
8697;BME280;4385;48.848;8.924;2023-04-03T02:25:02;98119.78;;;17.00;100.00
8697;BME280;4385;48.848;8.924;2023-04-03T02:27:27;98124.84;;;17.00;100.00
8697;BME280;4385;48.848;8.924;2023-04-03T02:29:53;98118.91;;;17.00;100.00
8697;BME280;4385;48.848;8.924;2023-04-03T02:32:18;98124.03;;;16.97;100.00
8697;BME280;4385;48.848;8.924;2023-04-03T02:34:43;98121.47;;;16.97;100.00
8697;BME280;4385;48.848;8.924;2023-04-03T02:37:08;98122.34;;;16.95;100.00
8697;BME280;4385;48.848;8.924;2023-04-03T02:39:34;98121.47;;;16.95;100.00
8697;BME280;4385;48.848;8.924;2023-04-03T02:41:59;98119.81;;;16.94;100.00
8697;BME280;4385;48.848;8.924;2023-04-03T02:44:25;98113.00;;;16.93;100.00
8697;BME280;4385;48.848;8.924;2023-04-03T02:46:50;98118.09;;;16.91;100.00
8697;BME280;4385;48.848;8.924;2023-04-03T02:49:15;98122.38;;;16.91;100.00
8697;BME280;4385;48.848;8.924;2023-04-03T02:51:41;98119.81;;;16.91;100.00
8697;BME280;4385;48.848;8.924;2023-04-03T02:54:07;98118.97;;;16.90;100.00
8697;BME280;4385;48.848;8.924;2023-04-03T02:56:32;98118.13;;;16.90;100.00
8697;BME280;4385;48.848;8.924;2023-04-03T02:58:58;98118.13;;;16.90;100.00
8697;BME280;4385;48.848;8.924;2023-04-03T03:01:23;98113.88;;;16.89;100.00
8697;BME280;4385;48.848;8.924;2023-04-03T03:03:48;98115.56;;;16.88;100.00
8697;BME280;4385;48.848;8.924;2023-04-03T03:06:15;98110.50;;;16.87;100.00
8697;BME280;4385;48.848;8.924;2023-04-03T03:08:42;98110.50;;;16.85;100.00
8697;BME280;4385;48.848;8.924;2023-04-03T03:11:09;98107.13;;;16.85;100.00
8697;BME280;4385;48.848;8.924;2023-04-03T03:13:35;98105.44;;;16.82;100.00
8697;BME280;4385;48.848;8.924;2023-04-03T03:16:00;98104.59;;;16.81;100.00
8697;BME280;4385;48.848;8.924;2023-04-03T03:18:26;98107.16;;;16.81;100.00
8697;BME280;4385;48.848;8.924;2023-04-03T03:20:52;98102.88;;;16.80;100.00
8697;BME280;4385;48.848;8.924;2023-04-03T03:23:18;98095.25;;;16.79;100.00
8697;BME280;4385;48.848;8.924;2023-04-03T03:25:44;98097.81;;;16.77;100.00
8697;BME280;4385;48.848;8.924;2023-04-03T03:28:09;98101.22;;;16.76;100.00
8697;BME280;4385;48.848;8.924;2023-04-03T03:30:34;98096.13;;;16.76;100.00
8697;BME280;4385;48.848;8.924;2023-04-03T03:33:00;98091.06;;;16.75;100.00
8697;BME280;4385;48.848;8.924;2023-04-03T03:35:25;98097.84;;;16.74;100.00
8697;BME280;4385;48.848;8.924;2023-04-03T03:37:51;98102.94;;;16.74;100.00
8697;BME280;4385;48.848;8.924;2023-04-03T03:40:16;98100.38;;;16.74;100.00
8697;BME280;4385;48.848;8.924;2023-04-03T03:42:42;98100.38;;;16.74;100.00
8697;BME280;4385;48.848;8.924;2023-04-03T03:45:08;98103.78;;;16.76;100.00
8697;BME280;4385;48.848;8.924;2023-04-03T03:47:33;98102.09;;;16.75;100.00
8697;BME280;4385;48.848;8.924;2023-04-03T03:49:59;98102.94;;;16.74;100.00
8697;BME280;4385;48.848;8.924;2023-04-03T03:52:25;98102.09;;;16.75;100.00
8697;BME280;4385;48.848;8.924;2023-04-03T03:54:51;98099.56;;;16.74;100.00
8697;BME280;4385;48.848;8.924;2023-04-03T03:57:16;98101.25;;;16.73;100.00
8697;BME280;4385;48.848;8.924;2023-04-03T03:59:41;98105.47;;;16.73;100.00
8697;BME280;4385;48.848;8.924;2023-04-03T04:02:07;98102.09;;;16.72;100.00
8697;BME280;4385;48.848;8.924;2023-04-03T04:04:33;98108.03;;;16.71;100.00
8697;BME280;4385;48.848;8.924;2023-04-03T04:06:58;98098.72;;;16.70;100.00
8697;BME280;4385;48.848;8.924;2023-04-03T04:09:26;98110.59;;;16.69;100.00
8697;BME280;4385;48.848;8.924;2023-04-03T04:11:51;98108.03;;;16.68;100.00
8697;BME280;4385;48.848;8.924;2023-04-03T04:14:16;98102.13;;;16.66;100.00
8697;BME280;4385;48.848;8.924;2023-04-03T04:16:42;98110.63;;;16.63;100.00
8697;BME280;4385;48.848;8.924;2023-04-03T04:19:07;98106.38;;;16.64;100.00
8697;BME280;4385;48.848;8.924;2023-04-03T04:21:32;98099.59;;;16.63;100.00
8697;BME280;4385;48.848;8.924;2023-04-03T04:23:58;98110.63;;;16.62;100.00
8697;BME280;4385;48.848;8.924;2023-04-03T04:26:23;98102.97;;;16.62;100.00
8697;BME280;4385;48.848;8.924;2023-04-03T04:28:49;98111.47;;;16.61;100.00
8697;BME280;4385;48.848;8.924;2023-04-03T04:31:14;98109.81;;;16.60;100.00
8697;BME280;4385;48.848;8.924;2023-04-03T04:33:39;98110.63;;;16.60;100.00
8697;BME280;4385;48.848;8.924;2023-04-03T04:36:05;98108.94;;;16.61;100.00
8697;BME280;4385;48.848;8.924;2023-04-03T04:38:30;98112.34;;;16.61;100.00
8697;BME280;4385;48.848;8.924;2023-04-03T04:40:55;98111.47;;;16.61;100.00
8697;BME280;4385;48.848;8.924;2023-04-03T04:43:21;98103.84;;;16.61;100.00
8697;BME280;4385;48.848;8.924;2023-04-03T04:45:46;98111.50;;;16.59;100.00
8697;BME280;4385;48.848;8.924;2023-04-03T04:48:12;98117.44;;;16.60;100.00
8697;BME280;4385;48.848;8.924;2023-04-03T04:50:37;98115.72;;;16.57;100.00
8697;BME280;4385;48.848;8.924;2023-04-03T04:53:02;98114.03;;;16.56;100.00
8697;BME280;4385;48.848;8.924;2023-04-03T04:55:29;98111.50;;;16.54;100.00
8697;BME280;4385;48.848;8.924;2023-04-03T04:57:54;98116.59;;;16.54;100.00
8697;BME280;4385;48.848;8.924;2023-04-03T05:00:20;98123.38;;;16.52;100.00
8697;BME280;4385;48.848;8.924;2023-04-03T05:02:45;98123.38;;;16.52;100.00
8697;BME280;4385;48.848;8.924;2023-04-03T05:05:10;98119.16;;;16.51;100.00
8697;BME280;4385;48.848;8.924;2023-04-03T05:07:35;98114.94;;;16.50;100.00
8697;BME280;4385;48.848;8.924;2023-04-03T05:10:02;98125.94;;;16.51;100.00
8697;BME280;4385;48.848;8.924;2023-04-03T05:12:28;98127.66;;;16.52;100.00
8697;BME280;4385;48.848;8.924;2023-04-03T05:14:53;98123.38;;;16.55;100.00
8697;BME280;4385;48.848;8.924;2023-04-03T05:17:18;98136.94;;;16.57;100.00
8697;BME280;4385;48.848;8.924;2023-04-03T05:19:44;98143.72;;;16.57;100.00
8697;BME280;4385;48.848;8.924;2023-04-03T05:22:09;98142.03;;;16.57;100.00
8697;BME280;4385;48.848;8.924;2023-04-03T05:24:35;98140.34;;;16.56;100.00
8697;BME280;4385;48.848;8.924;2023-04-03T05:27:00;98147.13;;;16.54;100.00
8697;BME280;4385;48.848;8.924;2023-04-03T05:29:25;98143.72;;;16.52;100.00
8697;BME280;4385;48.848;8.924;2023-04-03T05:31:50;98149.69;;;16.53;100.00
8697;BME280;4385;48.848;8.924;2023-04-03T05:34:16;98152.22;;;16.51;100.00
8697;BME280;4385;48.848;8.924;2023-04-03T05:36:41;98148.00;;;16.50;100.00
8697;BME280;4385;48.848;8.924;2023-04-03T05:39:07;98148.84;;;16.49;100.00
8697;BME280;4385;48.848;8.924;2023-04-03T05:41:32;98151.38;;;16.49;100.00
8697;BME280;4385;48.848;8.924;2023-04-03T05:43:58;98150.56;;;16.49;100.00
8697;BME280;4385;48.848;8.924;2023-04-03T05:46:23;98153.91;;;16.49;100.00
8697;BME280;4385;48.848;8.924;2023-04-03T05:48:48;98159.00;;;16.55;100.00
8697;BME280;4385;48.848;8.924;2023-04-03T05:51:19;98153.88;;;16.63;100.00
8697;BME280;4385;48.848;8.924;2023-04-03T05:53:47;98160.63;;;16.78;100.00
8697;BME280;4385;48.848;8.924;2023-04-03T05:56:13;98156.31;;;16.85;100.00
8697;BME280;4385;48.848;8.924;2023-04-03T05:58:39;98156.28;;;16.90;100.00
8697;BME280;4385;48.848;8.924;2023-04-03T06:01:04;98156.28;;;16.93;100.00
8697;BME280;4385;48.848;8.924;2023-04-03T06:03:30;98163.91;;;16.96;100.00
8697;BME280;4385;48.848;8.924;2023-04-03T06:05:56;98162.19;;;17.01;100.00
8697;BME280;4385;48.848;8.924;2023-04-03T06:08:21;98168.94;;;17.05;100.00
8697;BME280;4385;48.848;8.924;2023-04-03T06:10:46;98167.28;;;17.07;100.00
8697;BME280;4385;48.848;8.924;2023-04-03T06:13:12;98168.13;;;17.11;100.00
8697;BME280;4385;48.848;8.924;2023-04-03T06:15:38;98170.66;;;17.13;100.00
8697;BME280;4385;48.848;8.924;2023-04-03T06:18:05;98171.47;;;17.15;100.00
8697;BME280;4385;48.848;8.924;2023-04-03T06:20:30;98170.63;;;17.17;100.00
8697;BME280;4385;48.848;8.924;2023-04-03T06:22:56;98172.31;;;17.20;100.00
8697;BME280;4385;48.848;8.924;2023-04-03T06:25:21;98175.69;;;17.22;100.00
8697;BME280;4385;48.848;8.924;2023-04-03T06:27:46;98168.88;;;17.24;100.00
8697;BME280;4385;48.848;8.924;2023-04-03T06:30:12;98177.34;;;17.26;100.00
8697;BME280;4385;48.848;8.924;2023-04-03T06:32:37;98180.75;;;17.28;100.00
8697;BME280;4385;48.848;8.924;2023-04-03T06:35:04;98179.03;;;17.27;100.00
8697;BME280;4385;48.848;8.924;2023-04-03T06:37:30;98181.56;;;17.30;100.00
8697;BME280;4385;48.848;8.924;2023-04-03T06:39:56;98181.53;;;17.33;100.00
8697;BME280;4385;48.848;8.924;2023-04-03T06:42:22;98182.38;;;17.39;100.00
8697;BME280;4385;48.848;8.924;2023-04-03T06:44:47;98184.03;;;17.43;100.00
8697;BME280;4385;48.848;8.924;2023-04-03T06:47:14;98189.09;;;17.46;100.00
8697;BME280;4385;48.848;8.924;2023-04-03T06:49:40;98195.03;;;17.50;100.00
8697;BME280;4385;48.848;8.924;2023-04-03T06:52:06;98195.00;;;17.54;100.00
8697;BME280;4385;48.848;8.924;2023-04-03T06:54:32;98190.75;;;17.58;100.00
8697;BME280;4385;48.848;8.924;2023-04-03T06:56:57;98188.16;;;17.63;100.00
8697;BME280;4385;48.848;8.924;2023-04-03T06:59:23;98194.03;;;17.68;100.00
8697;BME280;4385;48.848;8.924;2023-04-03T07:01:48;98190.59;;;17.75;100.00
8697;BME280;4385;48.848;8.924;2023-04-03T07:04:14;98195.63;;;17.85;100.00
8697;BME280;4385;48.848;8.924;2023-04-03T07:06:39;98192.16;;;17.92;100.00
8697;BME280;4385;48.848;8.924;2023-04-03T07:09:05;98194.66;;;17.97;100.00
8697;BME280;4385;48.848;8.924;2023-04-03T07:11:31;98199.75;;;18.00;100.00
8697;BME280;4385;48.848;8.924;2023-04-03T07:13:56;98197.16;;;18.04;100.00
8697;BME280;4385;48.848;8.924;2023-04-03T07:16:21;98196.25;;;18.08;100.00
8697;BME280;4385;48.848;8.924;2023-04-03T07:18:47;98206.44;;;18.15;100.00
8697;BME280;4385;48.848;8.924;2023-04-03T07:21:12;98202.13;;;18.20;100.00
8697;BME280;4385;48.848;8.924;2023-04-03T07:23:38;98206.34;;;18.24;100.00
8697;BME280;4385;48.848;8.924;2023-04-03T07:26:03;98205.47;;;18.28;100.00
8697;BME280;4385;48.848;8.924;2023-04-03T07:28:29;98208.81;;;18.30;100.00
8697;BME280;4385;48.848;8.924;2023-04-03T07:31:01;98209.66;;;18.34;100.00
8697;BME280;4385;48.848;8.924;2023-04-03T07:33:26;98213.03;;;18.36;100.00
8697;BME280;4385;48.848;8.924;2023-04-03T07:35:52;98212.19;;;18.36;100.00
8697;BME280;4385;48.848;8.924;2023-04-03T07:38:17;98211.28;;;18.40;100.00
8697;BME280;4385;48.848;8.924;2023-04-03T07:40:50;98218.09;;;18.41;100.00
8697;BME280;4385;48.848;8.924;2023-04-03T07:43:18;98212.09;;;18.45;100.00
8697;BME280;4385;48.848;8.924;2023-04-03T07:45:45;98215.47;;;18.49;100.00
8697;BME280;4385;48.848;8.924;2023-04-03T07:48:12;98216.28;;;18.51;100.00
8697;BME280;4385;48.848;8.924;2023-04-03T07:50:41;98218.78;;;18.54;100.00
8697;BME280;4385;48.848;8.924;2023-04-03T07:53:07;98218.78;;;18.54;100.00
8697;BME280;4385;48.848;8.924;2023-04-03T07:55:32;98220.50;;;18.56;100.00
8697;BME280;4385;48.848;8.924;2023-04-03T07:57:58;98224.72;;;18.57;100.00
8697;BME280;4385;48.848;8.924;2023-04-03T08:00:23;98228.09;;;18.61;100.00
8697;BME280;4385;48.848;8.924;2023-04-03T08:02:49;98228.88;;;18.65;100.00
8697;BME280;4385;48.848;8.924;2023-04-03T08:05:20;98233.13;;;18.69;100.00
8697;BME280;4385;48.848;8.924;2023-04-03T08:07:46;98233.88;;;18.74;100.00
8697;BME280;4385;48.848;8.924;2023-04-03T08:10:12;98236.38;;;18.79;100.00
8697;BME280;4385;48.848;8.924;2023-04-03T08:12:37;98229.59;;;18.79;100.00
8697;BME280;4385;48.848;8.924;2023-04-03T08:15:03;98236.31;;;18.85;100.00
8697;BME280;4385;48.848;8.924;2023-04-03T08:17:29;98238.00;;;18.89;100.00
8697;BME280;4385;48.848;8.924;2023-04-03T08:19:54;98240.50;;;18.94;100.00
8697;BME280;4385;48.848;8.924;2023-04-03T08:22:20;98235.34;;;18.97;100.00
8697;BME280;4385;48.848;8.924;2023-04-03T08:24:45;98236.13;;;19.01;100.00
8697;BME280;4385;48.848;8.924;2023-04-03T08:27:11;98232.69;;;19.06;100.00
8697;BME280;4385;48.848;8.924;2023-04-03T08:29:36;98235.22;;;19.10;100.00
8697;BME280;4385;48.848;8.924;2023-04-03T08:32:03;98234.31;;;19.12;100.00
8697;BME280;4385;48.848;8.924;2023-04-03T08:34:28;98236.84;;;19.14;100.00
8697;BME280;4385;48.848;8.924;2023-04-03T08:36:53;98235.16;;;19.14;100.00
8697;BME280;4385;48.848;8.924;2023-04-03T08:39:19;98233.44;;;19.15;100.00
8697;BME280;4385;48.848;8.924;2023-04-03T08:41:45;98239.41;;;19.14;100.00
8697;BME280;4385;48.848;8.924;2023-04-03T08:46:46;98237.78;;;19.10;100.00
8697;BME280;4385;48.848;8.924;2023-04-03T08:49:23;98237.75;;;19.08;100.00
8697;BME280;4385;48.848;8.924;2023-04-03T08:51:50;98242.88;;;19.08;100.00
8697;BME280;4385;48.848;8.924;2023-04-03T08:54:52;98238.63;;;19.09;100.00
8697;BME280;4385;48.848;8.924;2023-04-03T08:57:26;98242.00;;;19.07;100.00
8697;BME280;4385;48.848;8.924;2023-04-03T08:59:53;98242.88;;;19.08;100.00
8697;BME280;4385;48.848;8.924;2023-04-03T09:02:30;98245.44;;;19.06;100.00
8697;BME280;4385;48.848;8.924;2023-04-03T09:04:57;98250.53;;;19.08;100.00
8697;BME280;4385;48.848;8.924;2023-04-03T09:07:35;98243.69;;;19.12;100.00
8697;BME280;4385;48.848;8.924;2023-04-03T09:10:04;98240.25;;;19.16;100.00
8697;BME280;4385;48.848;8.924;2023-04-03T09:12:37;98251.25;;;19.19;100.00
8697;BME280;4385;48.848;8.924;2023-04-03T09:22:50;98246.78;;;19.36;100.00
8697;BME280;4385;48.848;8.924;2023-04-03T09:25:23;98245.91;;;19.38;100.00
8697;BME280;4385;48.848;8.924;2023-04-03T09:27:50;98250.13;;;19.41;100.00
8697;BME280;4385;48.848;8.924;2023-04-03T09:30:19;98246.69;;;19.43;100.00
8697;BME280;4385;48.848;8.924;2023-04-03T09:32:46;98243.22;;;19.46;100.00
8697;BME280;4385;48.848;8.924;2023-04-03T09:37:45;98235.53;;;19.48;100.00
8697;BME280;4385;48.848;8.924;2023-04-03T09:42:54;98240.66;;;19.46;100.00
8697;BME280;4385;48.848;8.924;2023-04-03T09:45:30;98254.38;;;19.42;100.00
8697;BME280;4385;48.848;8.924;2023-04-03T09:50:36;98234.84;;;19.38;100.00
8697;BME280;4385;48.848;8.924;2023-04-03T09:53:07;98237.44;;;19.35;100.00
8697;BME280;4385;48.848;8.924;2023-04-03T09:55:43;98243.41;;;19.34;100.00
8697;BME280;4385;48.848;8.924;2023-04-03T09:58:24;98240.06;;;19.30;100.00
8697;BME280;4385;48.848;8.924;2023-04-03T10:01:02;98240.09;;;19.28;100.00
8697;BME280;4385;48.848;8.924;2023-04-03T10:03:31;98238.38;;;19.27;100.00
8697;BME280;4385;48.848;8.924;2023-04-03T10:05:58;98238.34;;;19.29;100.00
8697;BME280;4385;48.848;8.924;2023-04-03T10:08:34;98224.75;;;19.28;100.00
8697;BME280;4385;48.848;8.924;2023-04-03T10:11:15;98229.81;;;19.31;100.00
8697;BME280;4385;48.848;8.924;2023-04-03T10:13:52;98232.34;;;19.35;100.00
8697;BME280;4385;48.848;8.924;2023-04-03T10:16:21;98229.75;;;19.36;100.00
8697;BME280;4385;48.848;8.924;2023-04-03T10:21:48;98223.72;;;19.40;100.00
8697;BME280;4385;48.848;8.924;2023-04-03T10:27:12;98213.44;;;19.45;100.00
8697;BME280;4385;48.848;8.924;2023-04-03T10:32:44;98228.78;;;19.43;100.00
8697;BME280;4385;48.848;8.924;2023-04-03T10:35:33;98225.38;;;19.43;100.00
8697;BME280;4385;48.848;8.924;2023-04-03T10:44:16;98227.97;;;19.40;100.00
8697;BME280;4385;48.848;8.924;2023-04-03T10:57:54;98229.88;;;19.28;100.00
8697;BME280;4385;48.848;8.924;2023-04-03T11:00:42;98232.41;;;19.30;100.00
8697;BME280;4385;48.848;8.924;2023-04-03T11:03:14;98238.34;;;19.30;100.00
8697;BME280;4385;48.848;8.924;2023-04-03T11:05:47;98234.06;;;19.31;100.00
8697;BME280;4385;48.848;8.924;2023-04-03T11:08:26;98228.13;;;19.30;100.00
8697;BME280;4385;48.848;8.924;2023-04-03T11:10:55;98216.22;;;19.29;100.00
8697;BME280;4385;48.848;8.924;2023-04-03T11:13:28;98224.75;;;19.28;100.00
8697;BME280;4385;48.848;8.924;2023-04-03T11:15:57;98218.78;;;19.28;100.00
8697;BME280;4385;48.848;8.924;2023-04-03T11:18:28;98217.94;;;19.27;100.00
8697;BME280;4385;48.848;8.924;2023-04-03T11:21:04;98220.50;;;19.26;100.00
8697;BME280;4385;48.848;8.924;2023-04-03T11:23:38;98217.97;;;19.26;100.00
8697;BME280;4385;48.848;8.924;2023-04-03T11:26:10;98214.56;;;19.25;100.00
8697;BME280;4385;48.848;8.924;2023-04-03T11:28:37;98215.41;;;19.24;100.00
8697;BME280;4385;48.848;8.924;2023-04-03T11:31:19;98217.97;;;19.24;100.00
8697;BME280;4385;48.848;8.924;2023-04-03T11:34:19;98214.59;;;19.24;100.00
8697;BME280;4385;48.848;8.924;2023-04-03T11:36:51;98214.63;;;19.22;100.00
8697;BME280;4385;48.848;8.924;2023-04-03T11:39:23;98215.44;;;19.23;100.00
8697;BME280;4385;48.848;8.924;2023-04-03T11:41:50;98207.78;;;19.21;100.00
8697;BME280;4385;48.848;8.924;2023-04-03T11:44:47;98208.66;;;19.22;100.00
8697;BME280;4385;48.848;8.924;2023-04-03T11:47:52;98214.66;;;19.19;100.00
8697;BME280;4385;48.848;8.924;2023-04-03T12:13:39;98196.72;;;19.22;100.00
8697;BME280;4385;48.848;8.924;2023-04-03T12:16:06;98194.13;;;19.27;100.00
8697;BME280;4385;48.848;8.924;2023-04-03T12:21:18;98187.13;;;19.37;100.00
8697;BME280;4385;48.848;8.924;2023-04-03T12:24:02;98190.47;;;19.42;100.00
8697;BME280;4385;48.848;8.924;2023-04-03T12:26:47;98189.56;;;19.44;100.00
8697;BME280;4385;48.848;8.924;2023-04-03T12:37:15;98187.81;;;19.50;100.00
8697;BME280;4385;48.848;8.924;2023-04-03T12:45:19;98173.41;;;19.46;100.00
8697;BME280;4385;48.848;8.924;2023-04-03T12:47:49;98172.56;;;19.43;100.00
8697;BME280;4385;48.848;8.924;2023-04-03T12:50:21;98176.81;;;19.43;100.00
8697;BME280;4385;48.848;8.924;2023-04-03T12:53:01;98171.75;;;19.40;100.00
8697;BME280;4385;48.848;8.924;2023-04-03T12:55:29;98173.50;;;19.39;100.00
8697;BME280;4385;48.848;8.924;2023-04-03T12:57:54;98176.06;;;19.38;100.00
8697;BME280;4385;48.848;8.924;2023-04-03T13:00:30;98175.22;;;19.36;100.00
8697;BME280;4385;48.848;8.924;2023-04-03T13:02:58;98176.09;;;19.36;100.00
8697;BME280;4385;48.848;8.924;2023-04-03T13:05:24;98175.22;;;19.36;100.00
8697;BME280;4385;48.848;8.924;2023-04-03T13:07:54;98170.97;;;19.36;100.00
8697;BME280;4385;48.848;8.924;2023-04-03T13:10:22;98170.13;;;19.36;100.00
8697;BME280;4385;48.848;8.924;2023-04-03T13:12:57;98173.56;;;19.35;100.00
8697;BME280;4385;48.848;8.924;2023-04-03T13:15:24;98171.03;;;19.33;100.00
8697;BME280;4385;48.848;8.924;2023-04-03T13:17:51;98173.56;;;19.35;100.00
8697;BME280;4385;48.848;8.924;2023-04-03T13:20:29;98168.44;;;19.35;100.00
8697;BME280;4385;48.848;8.924;2023-04-03T13:22:59;98165.00;;;19.36;100.00
8697;BME280;4385;48.848;8.924;2023-04-03T13:25:28;98167.53;;;19.37;100.00
8697;BME280;4385;48.848;8.924;2023-04-03T13:27:55;98159.84;;;19.39;100.00
8697;BME280;4385;48.848;8.924;2023-04-03T13:30:25;98160.72;;;19.38;100.00
8697;BME280;4385;48.848;8.924;2023-04-03T13:32:52;98164.97;;;19.39;100.00
8697;BME280;4385;48.848;8.924;2023-04-03T13:38:03;98162.38;;;19.40;100.00
8697;BME280;4385;48.848;8.924;2023-04-03T13:40:30;98158.97;;;19.40;100.00
8697;BME280;4385;48.848;8.924;2023-04-03T13:43:01;98163.31;;;19.36;100.00
8697;BME280;4385;48.848;8.924;2023-04-03T13:45:28;98161.59;;;19.35;100.00
8697;BME280;4385;48.848;8.924;2023-04-03T13:48:19;98153.97;;;19.34;100.00
8697;BME280;4385;48.848;8.924;2023-04-03T13:50:54;98163.34;;;19.33;100.00
8697;BME280;4385;48.848;8.924;2023-04-03T13:53:20;98169.31;;;19.32;100.00
8697;BME280;4385;48.848;8.924;2023-04-03T13:58:24;98163.38;;;19.31;100.00
8697;BME280;4385;48.848;8.924;2023-04-03T14:00:51;98160.00;;;19.29;100.00
8697;BME280;4385;48.848;8.924;2023-04-03T14:03:36;98154.88;;;19.29;100.00
8697;BME280;4385;48.848;8.924;2023-04-03T14:06:05;98153.97;;;19.32;100.00
8697;BME280;4385;48.848;8.924;2023-04-03T14:08:31;98153.13;;;19.35;100.00
8697;BME280;4385;48.848;8.924;2023-04-03T14:10:56;98153.09;;;19.36;100.00
8697;BME280;4385;48.848;8.924;2023-04-03T14:13:22;98153.88;;;19.38;100.00
8697;BME280;4385;48.848;8.924;2023-04-03T14:15:48;98153.84;;;19.41;100.00
8697;BME280;4385;48.848;8.924;2023-04-03T14:18:17;98146.16;;;19.43;100.00
8697;BME280;4385;48.848;8.924;2023-04-03T14:20:43;98144.44;;;19.45;100.00
8697;BME280;4385;48.848;8.924;2023-04-03T14:23:09;98147.81;;;19.47;100.00
8697;BME280;4385;48.848;8.924;2023-04-03T14:25:35;98142.69;;;19.49;100.00
8697;BME280;4385;48.848;8.924;2023-04-03T14:28:01;98140.91;;;19.51;100.00
8697;BME280;4385;48.848;8.924;2023-04-03T14:30:31;98147.75;;;19.52;100.00
8697;BME280;4385;48.848;8.924;2023-04-03T14:32:57;98140.88;;;19.52;100.00
8697;BME280;4385;48.848;8.924;2023-04-03T14:35:24;98135.78;;;19.52;100.00
8697;BME280;4385;48.848;8.924;2023-04-03T14:37:50;98140.06;;;19.52;100.00
8697;BME280;4385;48.848;8.924;2023-04-03T14:40:23;98139.25;;;19.50;100.00
8697;BME280;4385;48.848;8.924;2023-04-03T14:42:48;98139.22;;;19.51;100.00
8697;BME280;4385;48.848;8.924;2023-04-03T14:45:14;98135.81;;;19.49;100.00